createdAt,value
2022-12-04T00:16:57.683Z,92.68
2022-12-04T00:47:01.481Z,92.88
2022-12-04T01:17:05.813Z,93.19
2022-12-04T01:47:08.638Z,93.39
2022-12-04T02:17:12.195Z,94.04
2022-12-04T02:47:15.004Z,94.15
2022-12-04T03:17:19.470Z,93.95
2022-12-04T03:47:22.435Z,94.21
2022-12-04T04:17:26.208Z,94.14
2022-12-04T04:47:29.401Z,94.50
2022-12-04T05:17:32.445Z,94.44
2022-12-04T05:47:35.958Z,95.00
2022-12-04T06:17:40.113Z,94.78
2022-12-04T06:47:43.330Z,94.75
2022-12-04T07:17:46.372Z,94.77
2022-12-04T07:47:49.672Z,95.13
2022-12-04T08:17:52.755Z,94.77
2022-12-04T08:47:55.600Z,94.37
2022-12-04T09:17:59.164Z,94.62
2022-12-04T09:48:02.215Z,94.53
2022-12-04T10:18:06.477Z,94.15
2022-12-04T10:48:09.557Z,94.11
2022-12-04T11:18:13.381Z,93.82
2022-12-04T11:48:16.258Z,94.02
2022-12-04T12:18:21.040Z,94.08
2022-12-04T12:48:25.658Z,93.83
2022-12-04T13:18:29.659Z,93.99
2022-12-04T13:48:32.744Z,94.21
2022-12-04T14:18:37.454Z,94.13
2022-12-04T14:48:40.306Z,94.61
2022-12-04T15:18:43.907Z,95.10
2022-12-04T15:48:48.120Z,95.27
2022-12-04T16:18:51.671Z,95.21
2022-12-04T16:48:54.567Z,95.37
2022-12-04T17:18:58.747Z,95.55
2022-12-04T17:49:06.846Z,95.56
2022-12-04T18:19:11.923Z,95.66
2022-12-04T19:10:09.299Z,95.48
2022-12-04T19:39:56.790Z,95.47
2022-12-04T20:10:00.292Z,95.43
2022-12-04T20:40:04.760Z,95.50
2022-12-04T21:10:07.729Z,95.64
2022-12-04T21:40:11.371Z,95.93
2022-12-04T22:10:14.184Z,96.02
2022-12-04T22:40:18.013Z,95.95
2022-12-04T23:10:21.137Z,96.10
2022-12-04T23:40:24.611Z,96.00
